Terminal Aerodrome Forecast
Issued by NWS Cleveland, OH

Home | Current Version | Previous Version | Text Only | Print | Product List | Glossary Off
Versions: 1 2 3 4 5 6 7 8 9 10 11 12 13 14 15 16 17 18 19 20 21 22 23 24 25 26 27 28 29

000
FTUS41 KCLE 151700
TAFCLE
TAF
KCLE 151737Z 1518/1624 23008KT P6SM SCT045 OVC080
      TEMPO 1518/1522 5SM -RA BR OVC045
     FM152200 35006KT 6SM -RA BR SCT020 OVC045
      TEMPO 1522/1601 4SM -RA BR OVC020
     FM160200 30004KT 4SM -RA BR OVC020
     FM160500 33004KT 5SM BR OVC007
     FM161100 35004KT P6SM OVC015
     FM161400 35006KT P6SM SCT030=

USA.gov is the U.S. government's official web portal to all federal, state and local government web resources and services.